Time;durP1;ratioP1;P1;durP2;ratioP2;P2;SDS_P1;SDS_P2;PMS_P1;PMS_P2;Temp;Humidity;BMP_temperature;BMP_pressure;BME280_temperature;BME280_humidity;BME280_pressure;Samples;Min_cycle;Max_cycle;Signal;HPM_P1;HPM_P2
2022/01/07 00:00:16;;;;;;;;;;;;;;;8.92;65.68;99980.81;4991649;28;19918;-88
2022/01/07 00:02:52;;;;;;;;;;;;;;;8.71;64.87;99971.81;4976855;28;19914;-88
2022/01/07 00:05:17;;;;;;;;;;;;;;;8.94;65.33;99972.84;4976417;28;19918;-87
2022/01/07 00:07:43;;;;;;;;;;;;;;;9.00;64.93;99967.19;4976267;28;19910;-88
2022/01/07 00:10:11;;;;;;;;;;;;;;;9.10;64.39;99963.03;4990757;28;19917;-88
2022/01/07 00:12:36;;;;;;;;;;;;;;;9.29;64.34;99972.22;4994645;28;20012;-88
2022/01/07 00:15:02;;;;;;;;;;;;;;;9.11;63.51;99969.94;4995570;28;19953;-88
2022/01/07 00:17:28;;;;;;;;;;;;;;;9.16;64.21;99969.59;4995317;28;19944;-89
2022/01/07 00:19:53;;;;;;;;;;;;;;;8.91;64.26;99973.09;4995535;28;20268;-89
2022/01/07 00:22:19;;;;;;;;;;;;;;;9.01;64.84;99963.66;4995380;28;19965;-88
2022/01/07 00:24:44;;;;;;;;;;;;;;;8.72;64.89;99960.38;4995218;28;19914;-89
2022/01/07 00:27:09;;;;;;;;;;;;;;;9.01;64.86;99963.66;4993395;28;19917;-89
2022/01/07 00:29:34;;;;;;;;;;;;;;;8.81;65.47;99972.88;4994193;28;19913;-89
2022/01/07 00:32:00;;;;;;;;;;;;;;;8.94;66.23;99980.72;4995213;28;20509;-88
2022/01/07 00:34:25;;;;;;;;;;;;;;;8.99;65.18;100004.81;4989789;28;19922;-88
2022/01/07 00:36:50;;;;;;;;;;;;;;;8.95;66.72;100020.84;4974340;28;20335;-89
2022/01/07 00:39:16;;;;;;;;;;;;;;;8.66;66.49;100000.88;4975957;28;19914;-89
2022/01/07 00:41:41;;;;;;;;;;;;;;;9.04;66.33;99994.03;4975881;28;19952;-89
2022/01/07 00:44:06;;;;;;;;;;;;;;;8.89;66.33;99986.28;4990639;28;20360;-89
2022/01/07 00:46:32;;;;;;;;;;;;;;;9.08;65.46;99993.72;4975754;28;20327;-88
2022/01/07 00:48:57;;;;;;;;;;;;;;;8.84;66.40;99987.53;4977767;28;20094;-89
2022/01/07 00:51:22;;;;;;;;;;;;;;;9.04;64.88;99973.91;4994870;28;19920;-88
2022/01/07 00:53:48;;;;;;;;;;;;;;;9.08;65.06;99972.78;4995168;28;19945;-89
2022/01/07 00:56:13;;;;;;;105.27;40.23;;;;;;;9.09;65.32;99958.72;4994676;28;19913;-89
2022/01/07 00:58:39;;;;;;;;;;;;;;;9.01;65.27;99962.81;4994191;28;20045;-89
2022/01/07 01:01:04;;;;;;;;;;;;;;;9.20;64.69;99972.84;4994331;28;20364;-89
2022/01/07 01:03:30;;;;;;;;;;;;;;;8.86;64.65;99985.63;4994166;28;19910;-89
2022/01/07 01:05:58;;;;;;;;;;;;;;;9.01;64.97;99996.88;4993983;28;20045;-89
2022/01/07 01:08:23;;;;;;;;;;;;;;;8.96;64.84;100044.28;4994679;28;19932;-88
2022/01/07 01:10:48;;;;;;;;;;;;;;;8.39;66.75;100081.16;4994657;28;20367;-89
2022/01/07 01:13:14;;;;;;;;;;;;;;;7.55;69.17;100078.47;4994751;28;19937;-88
2022/01/07 01:15:39;;;;;;;;;;;;;;;7.99;68.94;100071.44;4994523;28;20371;-89
2022/01/07 01:18:04;;;;;;;;;;;;;;;8.00;68.42;100026.06;4994804;28;19968;-89
2022/01/07 01:20:32;;;;;;;;;;;;;;;8.41;66.25;99998.19;4992702;28;20362;-89
2022/01/07 01:22:57;;;;;;;;;;;;;;;8.53;66.34;100003.50;4994683;28;19914;-89
2022/01/07 01:25:23;;;;;;;;;;;;;;;8.35;66.34;100002.03;4993323;28;20390;-89
2022/01/07 01:27:48;;;;;;;;;;;;;;;8.03;66.41;100001.50;4994198;28;19921;-88
2022/01/07 01:30:17;;;;;;;;;;;;;;;8.19;66.74;99994.34;4993142;28;19959;-89
2022/01/07 01:32:44;;;;;;;;;;;;;;;8.40;66.05;99983.44;4993970;28;19956;-89
2022/01/07 01:35:10;;;;;;;;;;;;;;;8.30;65.02;99991.06;4980045;28;19918;-88
2022/01/07 01:37:35;;;;;;;;;;;;;;;8.05;65.86;99984.78;4974639;28;19964;-88
2022/01/07 01:40:00;;;;;;;;;;;;;;;8.23;66.03;99982.75;4974926;28;19914;-89
2022/01/07 01:42:25;;;;;;;;;;;;;;;8.29;65.51;99981.50;4974791;28;19960;-88
2022/01/07 01:44:51;;;;;;;;;;;;;;;7.95;67.04;99983.69;4974573;28;20500;-89
2022/01/07 01:47:16;;;;;;;;;;;;;;;8.03;67.26;99985.81;4974694;28;19914;-88
2022/01/07 01:49:43;;;;;;;;;;;;;;;8.26;65.64;99977.31;4975483;28;19914;-88
2022/01/07 01:52:08;;;;;;;;;;;;;;;8.19;66.48;99968.19;4974554;28;19922;-88
2022/01/07 01:54:33;;;;;;;;;;;;;;;8.38;66.27;99974.84;4974403;28;20291;-88
2022/01/07 01:56:58;;;;;;;;;;;;;;;8.11;66.23;99967.84;4974266;28;19914;-88
2022/01/07 01:59:25;;;;;;;;;;;;;;;8.29;64.94;99971.91;4974073;28;20293;-88
2022/01/07 02:01:50;;;;;;;;;;;;;;;8.22;66.09;99962.78;4973930;28;19910;-89
2022/01/07 02:04:15;;;;;;;;;;;;;;;7.92;67.21;99969.03;4975172;28;19914;-88
2022/01/07 02:06:41;;;;;;;;;;;;;;;8.26;66.00;99963.41;4974121;28;20419;-88
2022/01/07 02:09:06;;;;;;;;;;;;;;;7.88;67.38;99970.19;4974040;28;20288;-88
2022/01/07 02:11:33;;;;;;;;;;;;;;;8.03;66.37;99952.66;4973610;28;19949;-88
2022/01/07 02:13:58;;;;;;;;;;;;;;;7.95;67.27;99952.31;4973866;28;19981;-88
2022/01/07 02:16:24;;;;;;;;;;;;;;;8.10;67.38;99974.03;4974149;28;19922;-88
2022/01/07 02:18:49;;;;;;;;;;;;;;;7.98;66.11;99973.03;4974127;28;19914;-89
2022/01/07 02:21:17;;;;;;;;;;;;;;;7.84;66.60;99981.78;4973850;28;20373;-88
2022/01/07 02:23:42;;;;;;;;;;;;;;;7.50;68.57;99983.03;4974017;28;20431;-88
2022/01/07 02:26:08;;;;;;;;;;;;;;;7.67;68.01;99984.59;4974004;28;19962;-88
2022/01/07 02:28:34;;;;;;;;;;;;;;;7.77;68.71;99980.47;4974127;28;19921;-88
2022/01/07 02:30:59;;;;;;;;;;;;;;;8.18;67.06;99981.38;4973726;28;19917;-88
2022/01/07 02:33:24;;;;;;;;;;;;;;;8.25;67.37;99980.88;4973630;28;19914;-88
2022/01/07 02:35:50;;;;;;;;;;;;;;;7.98;67.67;99993.09;4974530;28;19961;-87
2022/01/07 02:38:15;;;;;;;;;;;;;;;7.98;68.36;99985.25;4973849;28;19914;-89
2022/01/07 02:40:41;;;;;;;;;;;;;;;7.89;67.74;99974.47;4973848;28;19949;-88
2022/01/07 02:43:06;;;;;;;;;;;;;;;8.41;66.37;99982.47;4973731;28;19997;-88
2022/01/07 02:45:31;;;;;;;;;;;;;;;8.52;65.74;99974.81;4973556;28;19965;-87
2022/01/07 02:47:59;;;;;;;;;;;;;;;8.38;65.87;99978.31;4973548;28;19914;-88
2022/01/07 02:50:33;;;;;;;;;;;;;;;8.68;65.48;99988.53;4974547;28;20403;-88
2022/01/07 02:52:59;;;;;;;;;;;;;;;8.37;65.96;99981.00;4973460;28;19910;-88
2022/01/07 02:55:25;;;;;;;;;;;;;;;8.62;66.14;99983.72;4973403;28;19913;-88
2022/01/07 02:57:50;;;;;;;;;;;;;;;8.32;65.18;99987.38;4973986;28;19953;-88
2022/01/07 03:00:17;;;;;;;;;;;;;;;8.13;66.74;99974.66;4973757;28;20314;-88
2022/01/07 03:02:43;;;;;;;;;;;;;;;7.81;67.65;99962.81;4973632;28;19941;-88
2022/01/07 03:05:09;;;;;;;;;;;;;;;8.00;67.17;99965.09;5001436;28;20295;-88
2022/01/07 03:07:34;;;;;;;;;;;;;;;8.29;66.66;99956.22;4992807;28;20000;-88
2022/01/07 03:09:59;;;;;;;;;;;;;;;8.38;65.75;99953.94;4992700;28;20020;-88
2022/01/07 03:12:25;;;;;;;;;;;;;;;8.37;66.33;99933.91;4992554;28;19918;-88
2022/01/07 03:14:50;;;;;;;;;;;;;;;8.10;66.33;99940.03;4992653;28;20386;-88
2022/01/07 03:17:16;;;;;;;;;;;;;;;8.40;65.22;99942.41;4992544;28;19921;-88
2022/01/07 03:19:41;;;;;;;;;;;;;;;8.48;65.22;99949.78;4981678;28;19941;-88
2022/01/07 03:22:06;;;;;;;;;;;;;;;8.41;64.67;99945.84;4973188;28;19963;-88
2022/01/07 03:24:31;;;;;;;;;;;;;;;8.06;66.00;99944.63;4975451;28;19913;-88
2022/01/07 03:26:57;;;;;;;;;;;;;;;8.02;66.35;99937.09;4976798;28;19936;-88
2022/01/07 03:29:22;;;;;;;;;;;;;;;8.10;65.52;99930.41;4976718;28;19909;-88
2022/01/07 03:31:47;;;;;;;;;;;;;;;8.14;65.88;99944.13;4976742;28;19914;-88
2022/01/07 03:34:12;;;;;;;;;;;;;;;8.23;65.12;99946.13;4977646;28;20377;-89
2022/01/07 03:36:38;;;;;;;;;;;;;;;8.23;65.91;99947.91;4977907;28;19922;-88
2022/01/07 03:39:03;;;;;;;;;;;;;;;8.26;65.17;99948.56;4976703;28;19983;-89
2022/01/07 03:41:29;;;;;;;;;;;;;;;8.28;64.87;99938.81;4976337;28;20326;-89
2022/01/07 03:43:54;;;;;;;;;;;;;;;8.38;65.57;99939.06;4976671;28;19921;-88
2022/01/07 03:46:20;;;;;;;;;;;;;;;7.93;65.84;99939.34;4976584;28;19981;-88
2022/01/07 03:48:45;;;;;;;;;;;;;;;8.11;65.13;99937.31;4976599;28;19914;-88
2022/01/07 03:51:10;;;;;;;;;;;;;;;7.83;66.13;99917.34;4977295;28;19925;-88
2022/01/07 03:53:35;;;;;;;;;;;;;;;8.56;64.14;99929.19;4976255;28;19914;-88
2022/01/07 03:56:01;;;;;;;;;;;;;;;8.58;63.02;99931.69;4976041;28;20307;-88
2022/01/07 03:58:26;;;;;;;;;;;;;;;8.63;63.28;99914.75;4976113;28;20353;-88
2022/01/07 04:00:51;;;;;;;;;;;;;;;8.22;64.98;99910.47;4991096;28;19914;-88
2022/01/07 04:03:17;;;;;;;;;;;;;;;8.29;65.12;99919.59;4991186;28;19941;-89
2022/01/07 04:05:43;;;;;;;;;;;;;;;8.20;65.23;99914.97;4991913;28;19918;-88
2022/01/07 04:08:08;;;;;;;;;;;;;;;8.20;65.41;99912.34;4975949;28;20078;-88
2022/01/07 04:10:35;;;;;;;;;;;;;;;8.17;65.79;99914.31;4975999;28;19957;-88
2022/01/07 04:13:00;;;;;;;;;;;;;;;8.08;65.13;99910.53;4975837;28;19941;-88
2022/01/07 04:15:26;;;;;;;;;;;;;;;8.22;66.43;99923.53;4975874;28;20439;-89
2022/01/07 04:17:52;;;;;;;;;;;;;;;8.30;64.74;99931.72;4975846;28;19949;-88
2022/01/07 04:20:19;;;;;;;;;;;;;;;8.39;65.25;99934.66;4988754;28;20008;-89
2022/01/07 04:22:45;;;;;;;;;;;;;;;8.17;64.88;99937.84;4995349;28;19913;-88
2022/01/07 04:25:17;;;;;;;;;;;;;;;7.92;66.16;99948.13;4995307;28;20495;-88
2022/01/07 04:27:46;;;;;;;;;;;;;;;8.29;65.70;99937.91;4995079;28;20265;-89
2022/01/07 04:30:12;;;;;;;;;;;;;;;8.34;65.33;99920.09;5009978;28;19913;-89
2022/01/07 04:32:37;;;;;;;;;;;;;;;8.44;65.15;99935.25;4995081;28;20460;-88
2022/01/07 04:35:03;;;;;;;;;;;;;;;7.97;65.24;99932.13;4986459;28;20004;-89
2022/01/07 04:37:29;;;;;;;;;;;;;;;8.67;64.63;99931.09;4991472;28;19922;-89
2022/01/07 04:39:54;;;;;;;;;;;;;;;8.84;63.84;99927.31;4993634;28;20319;-89
2022/01/07 04:42:19;;;;;;;;;;;;;;;8.90;63.70;99921.66;4994728;28;19914;-89
2022/01/07 04:44:44;;;;;;;;;;;;;;;8.82;64.08;99939.66;4994816;28;20004;-89
2022/01/07 04:47:10;;;;;;;;;;;;;;;8.91;64.44;99949.50;4994895;28;19917;-88
2022/01/07 04:49:35;;;;;;;;;;;;;;;8.95;63.68;99939.69;4992930;28;20368;-88
2022/01/07 04:52:01;;;;;;;;;;;;;;;8.99;63.91;99957.69;4994546;28;19920;-89
2022/01/07 04:54:26;;;;;;;;;;;;;;;8.97;64.04;99983.13;4994490;28;20384;-89
2022/01/07 04:56:51;;;;;;;;;;;;;;;8.51;63.93;99962.66;4993323;28;20386;-89
2022/01/07 04:59:17;;;;;;;;;;;;;;;8.07;66.00;99966.38;5009873;28;19913;-88
2022/01/07 05:01:42;;;;;;;;;;;;;;;8.38;65.20;99961.78;4994850;28;19914;-88
2022/01/07 05:04:07;;;;;;;;;;;;;;;8.20;64.72;99967.25;4993136;28;19922;-88
2022/01/07 05:06:45;;;;;;;;;;;;;;;8.44;65.53;99980.53;4994951;28;19913;-88
2022/01/07 05:09:17;;;;;;;;;;;;;;;8.37;65.73;99974.00;4994680;28;19921;-89
2022/01/07 05:11:44;;;;;;;;;;;;;;;8.52;65.08;99966.97;4994630;28;20311;-88
2022/01/07 05:14:09;;;;;;;;;;;;;;;8.53;64.59;99953.78;4995007;28;19918;-89
2022/01/07 05:16:34;;;;;;;;;;;;;;;8.70;64.98;99943.94;4994417;28;20008;-88
2022/01/07 05:19:00;;;;;;;;;;;;;;;8.57;65.03;99959.66;4989013;28;19958;-89
2022/01/07 05:21:25;;;;;;;;;;;;;;;8.62;65.71;99951.47;4974900;28;20328;-88
2022/01/07 05:23:50;;;;;;;;;;;;;;;8.92;64.30;99959.88;4990294;28;20376;-90
2022/01/07 05:26:15;;;;;;;;;;;;;;;8.88;65.08;99968.03;4975115;28;19932;-89
2022/01/07 05:28:41;;;;;;;;;;;;;;;8.89;64.85;99972.34;4974909;28;20419;-89
2022/01/07 05:31:06;;;;;;;;;;;;;;;8.87;64.40;99974.22;4975122;28;20053;-89
2022/01/07 05:33:31;;;;;;;;;;;;;;;8.73;65.19;99960.28;4990930;28;19918;-89
2022/01/07 05:35:57;;;;;;;;;;;;;;;8.91;64.71;99954.75;4974633;28;19956;-89
2022/01/07 05:38:22;;;;;;;;;;;;;;;8.72;64.64;99953.38;4975003;28;19953;-89
2022/01/07 05:40:47;;;;;;;;;;;;;;;8.88;64.08;99949.72;4974920;28;20196;-88
2022/01/07 05:43:12;;;;;;;;;;;;;;;9.09;64.78;99956.09;4974532;28;19969;-88
2022/01/07 05:45:38;;;;;;;;;;;;;;;8.97;64.40;99945.66;4974439;28;20375;-88
2022/01/07 05:48:03;;;;;;;;;;;;;;;8.96;64.69;99965.72;4974582;28;19914;-88
2022/01/07 05:50:29;;;;;;;;;;;;;;;8.84;64.63;99963.97;4989900;28;19971;-89
2022/01/07 05:52:54;;;;;;;;;;;;;;;9.10;64.08;99957.78;4992798;28;20364;-88
2022/01/07 05:55:19;;;;;;;;;;;;;;;9.11;64.12;99948.97;4993946;28;20004;-88
2022/01/07 05:57:44;;;;;;;;;;;;;;;9.04;63.95;99952.13;4993881;28;19929;-88
2022/01/07 06:00:11;;;;;;;;;;;;;;;9.05;64.17;99944.16;4993845;28;19949;-88
2022/01/07 06:02:36;;;;;;;;;;;;;;;9.01;63.59;99947.94;4993629;28;19913;-89
2022/01/07 06:05:02;;;;;;;;;;;;;;;9.00;63.80;99959.34;4978097;28;19925;-88
2022/01/07 06:07:27;;;;;;;;;;;;;;;9.03;64.15;99951.28;4974458;28;19921;-88
2022/01/07 06:09:52;;;;;;;;;;;;;;;8.90;64.44;99950.44;4974698;28;20376;-89
2022/01/07 06:12:18;;;;;;;;;;;;;;;8.74;64.38;99953.25;4974460;28;20005;-88
2022/01/07 06:14:43;;;;;;;98.67;35.60;;;;;;;8.64;64.16;99950.44;4974046;28;19921;-89
2022/01/07 06:17:11;;;;;;;;;;;;;;;8.59;63.29;99960.38;4974020;28;20504;-88
2022/01/07 06:19:36;;;;;;;;;;;;;;;8.76;64.63;99968.88;4985911;28;19925;-88
2022/01/07 06:22:02;;;;;;;;;;;;;;;8.85;63.87;99963.84;4993325;28;19914;-89
2022/01/07 06:24:27;;;;;;;;;;;;;;;8.67;64.46;99965.09;5008441;28;20439;-89
2022/01/07 06:26:52;;;;;;;;;;;;;;;8.67;64.14;99959.88;4993461;28;20371;-88
2022/01/07 06:29:18;;;;;;;;;;;;;;;8.84;63.97;99972.63;4993579;28;19918;-89
2022/01/07 06:31:43;;;;;;;;;;;;;;;8.78;63.69;99964.38;4993142;28;19937;-89
2022/01/07 06:34:08;;;;;;;;;;;;;;;8.16;65.20;99941.44;4976091;28;20411;-89
2022/01/07 06:36:33;;;;;;;;;;;;;;;8.38;64.70;99953.94;4973830;28;19922;-89
2022/01/07 06:38:59;;;;;;;;;;;;;;;8.38;65.02;99948.69;4974168;28;19914;-89
2022/01/07 06:41:24;;;;;;;;;;;;;;;8.61;65.06;99948.03;4974119;28;19914;-89
2022/01/07 06:43:49;;;;;;;;;;;;;;;8.76;63.25;99937.47;4974416;28;19976;-89
2022/01/07 06:46:14;;;;;;;;;;;;;;;8.80;64.42;99949.41;4974116;28;20383;-88
2022/01/07 06:48:41;;;;;;;;;;;;;;;8.43;64.84;99957.94;4973899;28;19925;-89
2022/01/07 06:51:06;;;;;;;;;;;;;;;8.18;65.99;99963.91;4973982;28;19914;-88
2022/01/07 06:53:31;;;;;;;;;;;;;;;8.30;65.89;99962.28;4974071;28;19914;-88
2022/01/07 06:55:57;;;;;;;;;;;;;;;7.79;67.11;99975.16;4973518;28;19964;-89
2022/01/07 06:58:23;;;;;;;;;;;;;;;7.78;66.64;99981.31;4975525;28;20035;-88
2022/01/07 07:00:48;;;;;;;;;;;;;;;7.60;65.73;99978.06;4976136;28;19914;-89
2022/01/07 07:03:13;;;;;;;;;;;;;;;7.88;65.97;99980.63;4987673;28;20020;-89
2022/01/07 07:05:38;;;;;;;;;;;;;;;7.95;66.08;99988.91;4996821;28;19921;-89
2022/01/07 07:08:04;;;;;;;;;;;;;;;8.10;65.65;99992.34;4996975;28;19968;-90
2022/01/07 07:10:29;;;;;;;;;;;;;;;7.67;66.91;100013.34;4992329;28;19918;-88
2022/01/07 07:12:54;;;;;;;;;;;;;;;7.31;67.35;100004.22;4978619;28;19918;-88
2022/01/07 07:15:20;;;;;;;;;;;;;;;7.50;67.43;99996.94;4988752;28;19922;-89
2022/01/07 07:17:45;;;;;;;;;;;;;;;7.10;68.20;99969.81;4987544;28;19965;-89
2022/01/07 07:20:12;;;;;;;;;;;;;;;7.80;66.09;99972.44;4985628;28;20016;-88
2022/01/07 07:22:37;;;;;;;;;;;;;;;7.87;65.99;99965.88;4982977;28;20007;-88
2022/01/07 07:25:02;;;;;;;;;;;;;;;7.78;66.23;99965.63;4984401;28;19993;-89
2022/01/07 07:27:28;;;;;;;;;;;;;;;7.89;65.82;99963.16;4982781;28;19921;-88
2022/01/07 07:29:53;;;;;;;;;;;;;;;7.80;65.73;99968.97;4992845;28;19918;-90
2022/01/07 07:32:24;;;;;;;;;;;;;;;7.81;66.24;99971.50;4991269;28;19917;-89
2022/01/07 07:34:59;;;;;;;;;;;;;;;8.06;65.17;99976.00;4980300;28;19917;-87
2022/01/07 07:37:25;;;;;;;;;;;;;;;8.29;64.75;99974.53;4985061;28;19918;-88
2022/01/07 07:39:50;;;;;;;;;;;;;;;8.31;65.00;99979.63;4981871;28;19924;-87
2022/01/07 07:42:15;;;;;;;;;;;;;;;8.34;64.39;99982.06;4988878;28;19941;-88
2022/01/07 07:44:41;;;;;;;;;;;;;;;8.32;64.71;99987.38;4987197;28;19963;-88
2022/01/07 07:47:06;;;;;;;;;;;;;;;8.34;64.78;99985.50;4980072;28;20368;-89
2022/01/07 07:49:31;;;;;;;;;;;;;;;8.26;64.26;99979.94;4984296;28;20004;-88
2022/01/07 07:51:57;;;;;;;;;;;;;;;8.29;64.84;99971.03;4986110;28;19918;-89
2022/01/07 07:54:22;;;;;;;;;;;;;;;8.21;64.37;99982.00;5004838;28;20129;-92
2022/01/07 07:56:48;;;;;;;;;;;;;;;8.23;64.21;99982.75;5003554;28;20378;-88
2022/01/07 07:59:13;;;;;;;;;;;;;;;8.24;64.70;99981.81;4987204;28;20009;-89
2022/01/07 08:01:38;;;;;;;;;;;;;;;8.22;64.73;99981.09;4984601;28;20307;-88
2022/01/07 08:04:04;;;;;;;;;;;;;;;8.20;64.71;99982.13;4991363;28;19929;-88
2022/01/07 08:06:29;;;;;;;;;;;;;;;8.14;63.33;99983.34;5002822;28;19965;-90
2022/01/07 08:08:55;;;;;;;;;;;;;;;8.22;64.66;99988.09;4986525;28;20368;-90
2022/01/07 08:11:22;;;;;;;;;;;;;;;8.17;64.24;99993.59;4984300;28;19918;-91
2022/01/07 08:18:13;;;;;;;;;;;;;;;8.07;64.96;100009.03;5089273;27;19954;-91
2022/01/07 08:20:38;;;;;;;;;;;;;;;8.01;63.70;100013.84;5088838;28;19924;-90
2022/01/07 08:23:04;;;;;;;;;;;;;;;7.97;64.52;100012.34;5106258;28;19916;-90
2022/01/07 08:25:29;;;;;;;;;;;;;;;7.90;64.21;100012.75;5087949;28;20263;-89
2022/01/07 08:27:56;;;;;;;;;;;;;;;7.88;64.17;100008.56;5081846;28;20051;-90
2022/01/07 08:30:25;;;;;;;;;;;;;;;7.93;64.35;100006.47;5082310;28;19995;-91
2022/01/07 08:35:36;;;;;;;;;;;;;;;7.94;63.79;100019.47;5016960;28;19970;-89
2022/01/07 08:38:01;;;;;;;;;;;;;;;7.86;63.82;100037.41;5072617;28;19952;-89
2022/01/07 08:40:27;;;;;;;;;;;;;;;7.92;64.78;100046.63;5079084;28;19964;-88
2022/01/07 08:42:52;;;;;;;;;;;;;;;7.98;64.63;100043.63;5082528;28;19927;-88
2022/01/07 08:45:17;;;;;;;;;;;;;;;7.85;64.36;100046.16;5089454;28;20394;-89
2022/01/07 08:47:42;;;;;;;;;;;;;;;7.96;63.81;100035.06;5089372;28;20427;-88
2022/01/07 08:50:08;;;;;;;;;;;;;;;8.04;63.46;100024.94;5086131;28;19928;-89
2022/01/07 08:52:33;;;;;;;;;;;;;;;8.08;63.79;100008.13;5068958;28;20441;-90
2022/01/07 08:54:58;;;;;;;;;;;;;;;8.08;64.23;99999.44;5069003;28;19970;-90
2022/01/07 08:57:24;;;;;;;;;;;;;;;8.22;63.03;99990.72;5068889;28;20381;-90
2022/01/07 08:59:50;;;;;;;;;;;;;;;8.31;63.96;100003.16;5067726;28;19916;-91
2022/01/07 09:02:15;;;;;;;;;;;;;;;8.97;63.16;100025.03;5068824;28;19951;-91
2022/01/07 09:04:40;;;;;;;;;;;;;;;9.11;63.00;100024.09;5068850;28;20294;-91
2022/01/07 09:07:06;;;;;;;;;;;;;;;9.15;62.98;100032.59;5070118;28;19921;-89
2022/01/07 09:09:31;;;;;;;;;;;;;;;9.17;62.45;100041.19;5068672;28;20345;-89
2022/01/07 09:11:56;;;;;;;;;;;;;;;9.28;61.64;100038.66;5068951;28;20024;-90
2022/01/07 09:14:21;;;;;;;;;;;;;;;9.09;60.22;100041.69;5068570;28;19912;-89
2022/01/07 09:16:47;;;;;;;;;;;;;;;9.12;61.92;100049.31;5070656;28;20397;-90
2022/01/07 09:19:12;;;;;;;;;;;;;;;9.18;60.71;100040.22;5073978;28;20007;-90
2022/01/07 09:21:37;;;;;;;;;;;;;;;8.68;62.68;100040.06;5082967;28;19948;-89
2022/01/07 09:24:03;;;;;;;;;;;;;;;8.67;63.04;100051.47;5090966;28;20358;-90
2022/01/07 09:26:28;;;;;;;;;;;;;;;8.50;62.52;100061.25;5090921;28;19951;-89
2022/01/07 09:28:53;;;;;;;;;;;;;;;8.76;62.58;100073.59;5080995;28;19952;-89
2022/01/07 09:31:18;;;;;;;;;;;;;;;8.92;62.21;100069.84;5076736;28;20313;-89
2022/01/07 09:33:44;;;;;;;;;;;;;;;8.81;62.59;100068.91;5075471;28;19912;-90
2022/01/07 09:36:09;;;;;;;;;;;;;;;8.71;62.50;100066.03;5068091;28;20367;-88
2022/01/07 09:38:35;;;;;;;;;;;;;;;8.56;63.38;100073.09;5062172;28;20007;-89
2022/01/07 09:41:00;;;;;;;;;;;;;;;8.61;63.31;100070.16;5056251;28;19920;-89
2022/01/07 09:43:25;;;;;;;;;;;;;;;8.87;63.90;100071.94;5056140;28;20232;-90
2022/01/07 09:45:51;;;;;;;;;;;;;;;8.39;64.58;100068.91;5061998;28;19913;-89
2022/01/07 09:48:16;;;;;;;;;;;;;;;8.84;63.83;100071.28;5058623;28;19917;-89
2022/01/07 09:50:41;;;;;;;;;;;;;;;8.67;64.05;100069.81;5057737;28;19931;-89
2022/01/07 09:53:08;;;;;;;;;;;;;;;8.91;62.74;100069.97;5055037;28;19959;-89
2022/01/07 09:55:34;;;;;;;;;;;;;;;9.42;62.98;100067.38;5054993;28;19920;-90
2022/01/07 09:57:59;;;;;;;;;;;;;;;9.49;61.82;100062.56;5054923;28;19924;-89
2022/01/07 10:00:30;;;;;;;;;;;;;;;9.28;62.36;100078.81;5071825;28;20280;-89
2022/01/07 10:03:03;;;;;;;;;;;;;;;9.37;61.74;100069.47;5074909;28;19917;-91
2022/01/07 10:05:29;;;;;;;;;;;;;;;9.59;61.33;100068.81;5074603;28;19917;-90
2022/01/07 10:07:54;;;;;;;;;;;;;;;9.29;62.75;100077.84;5074664;28;19916;-90
2022/01/07 10:10:19;;;;;;;;;;;;;;;9.49;62.44;100060.75;5074535;28;19917;-90
2022/01/07 10:13:00;;;;;;;;;;;;;;;8.91;63.17;100067.34;5074643;28;20013;-90
2022/01/07 10:15:26;;;;;;;;;;;;;;;9.31;62.57;100069.88;5073628;28;19920;-89
2022/01/07 10:17:55;;;;;;;;;;;;;;;9.52;62.37;100076.28;5059390;28;19921;-90
2022/01/07 10:20:25;;;;;;;;;;;;;;;9.60;62.26;100086.25;5054164;28;19917;-89
2022/01/07 10:22:53;;;;;;;;;;;;;;;9.46;62.55;100092.44;5054180;28;20316;-89
2022/01/07 10:25:29;;;;;;;;;;;;;;;9.52;61.97;100099.03;5054341;28;19924;-90
2022/01/07 10:27:58;;;;;;;;;;;;;;;9.47;62.65;100111.63;5054402;28;20004;-90
2022/01/07 10:30:27;;;;;;;;;;;;;;;9.34;62.00;100103.75;5054305;28;20282;-89
2022/01/07 10:32:53;;;;;;;;;;;;;;;9.63;61.88;100100.91;5054844;28;19971;-89
2022/01/07 10:35:19;;;;;;;;;;;;;;;9.53;62.19;100098.91;5053931;28;19924;-91
2022/01/07 10:37:49;;;;;;;;;;;;;;;9.10;62.94;100086.13;5054117;28;19982;-90
2022/01/07 10:40:20;;;;;;;;;;;;;;;9.24;62.29;100090.44;5051818;28;19917;-89
2022/01/07 10:42:45;;;;;;;;;;;;;;;8.85;63.95;100065.13;5052976;28;19913;-89
2022/01/07 10:45:10;;;;;;;;;;;;;;;8.90;62.63;100076.13;5054359;28;19917;-89
2022/01/07 10:47:36;;;;;;;;;;;;;;;8.92;62.43;100074.25;5055096;28;19916;-89
2022/01/07 10:50:14;;;;;;;;;;;;;;;8.65;62.83;100058.56;5068124;28;20019;-89
2022/01/07 10:52:40;;;;;;;;;;;;;;;8.74;62.63;100050.94;5073842;28;19916;-89
2022/01/07 10:55:13;;;;;;;;;;;;;;;8.68;63.36;100055.75;5073602;28;19918;-89
2022/01/07 10:57:38;;;;;;;;;;;;;;;8.84;63.69;100053.78;5073309;28;19921;-89
2022/01/07 11:00:08;;;;;;;;;;;;;;;9.11;62.62;100053.75;5089068;28;19923;-89
2022/01/07 11:02:34;;;;;;;;;;;;;;;8.98;63.10;100052.88;5088948;28;19975;-89
2022/01/07 11:04:59;;;;;;;;;;;;;;;9.08;61.79;100056.59;5073060;28;19960;-89
2022/01/07 11:07:25;;;;;;;;;;;;;;;8.86;61.90;100054.53;5054027;28;20350;-89
2022/01/07 11:09:51;;;;;;;;;;;;;;;9.53;62.10;100033.41;5067313;28;19924;-89
2022/01/07 11:12:17;;;;;;;;;;;;;;;9.68;60.81;100049.03;5073239;28;19916;-89
2022/01/07 11:14:42;;;;;;;;;;;;;;;9.43;61.44;100042.00;5058181;28;19920;-89
2022/01/07 11:17:10;;;;;;;;;;;;;;;9.47;61.84;100040.84;5052611;28;19921;-89
2022/01/07 11:19:38;;;;;;;;;;;;;;;10.08;59.51;100040.94;5064904;28;19920;-90
2022/01/07 11:22:04;;;;;;;;;;;;;;;9.95;61.17;100038.34;5073250;28;19929;-89
2022/01/07 11:24:47;;;;;;;;;;;;;;;10.18;60.02;100043.75;5062738;28;19924;-89
2022/01/07 11:27:14;;;;;;;;;;;;;;;10.03;59.49;100040.41;5056464;28;19970;-88
2022/01/07 11:30:02;;;;;;;;;;;;;;;10.07;59.74;100047.97;5054976;28;19921;-89
2022/01/07 11:32:28;;;;;;;;;;;;;;;10.23;59.65;100047.72;5052296;28;20321;-89
2022/01/07 11:34:54;;;;;;;;;;;;;;;9.83;59.82;100044.47;5053120;28;19979;-89
2022/01/07 11:37:39;;;;;;;;;;;;;;;10.25;58.82;100050.25;5052875;28;19960;-88
2022/01/07 11:40:05;;;;;;;;;;;;;;;9.98;59.83;100039.94;5053662;28;19951;-88
2022/01/07 11:42:41;;;;;;;;;;;;;;;10.14;59.23;100045.75;5063270;28;19971;-88
2022/01/07 11:45:27;;;;;;;;;;;;;;;10.31;59.32;100039.31;5052956;28;19960;-89
2022/01/07 11:47:53;;;;;;;;;;;;;;;9.95;59.66;100025.22;5053346;28;19955;-89
2022/01/07 11:50:18;;;;;;;;;;;;;;;10.31;58.68;100016.53;5065798;28;19970;-88
2022/01/07 11:52:55;;;;;;;;;;;;;;;10.29;59.09;100013.16;5065185;28;20437;-89
2022/01/07 11:55:31;;;;;;;;;;;;;;;10.30;58.77;100003.53;5056635;28;19959;-88
2022/01/07 11:57:58;;;;;;;;;;;;;;;10.40;58.91;100004.50;5055920;28;20353;-88
2022/01/07 12:00:42;;;;;;;;;;;;;;;10.22;58.38;99990.09;5055241;28;19916;-89
2022/01/07 12:03:07;;;;;;;;;;;;;;;10.32;59.76;99985.88;5051264;28;20354;-89
2022/01/07 12:05:32;;;;;;;;;;;;;;;10.07;59.82;99994.66;5052942;28;20023;-89
2022/01/07 12:07:57;;;;;;;;;;;;;;;10.13;59.95;99983.75;5052901;28;19966;-89
2022/01/07 12:10:23;;;;;;;;;;;;;;;10.27;57.84;99988.81;5055631;28;20015;-88
2022/01/07 12:12:50;;;;;;;;;;;;;;;10.45;58.61;99994.53;5052467;28;19912;-89
2022/01/07 12:15:15;;;;;;;;;;;;;;;9.62;60.69;99990.00;5053291;28;19921;-88
2022/01/07 12:17:41;;;;;;;;;;;;;;;10.17;58.32;99994.84;5052230;28;19925;-89
2022/01/07 12:20:39;;;;;;;;;;;;;;;10.46;58.69;99990.94;5054691;28;20001;-89
2022/01/07 12:23:04;;;;;;;;;;;;;;;10.27;58.94;99986.19;5068622;28;19921;-89
2022/01/07 12:25:29;;;;;;;;;;;;;;;10.40;57.87;99987.94;5058452;28;19932;-89
2022/01/07 12:28:00;;;;;;;;;;;;;;;10.51;59.01;99995.88;5067336;28;19928;-90
2022/01/07 12:30:25;;;;;;;;;;;;;;;10.23;59.64;100000.50;5057138;28;19928;-90
2022/01/07 12:32:50;;;;;;;;;;;;;;;10.03;59.83;99993.22;5053875;28;20318;-89
2022/01/07 12:35:17;;;;;;;;;;;;;;;10.31;59.83;99981.59;5059967;28;19946;-90
2022/01/07 12:37:42;;;;;;;;;;;;;;;10.41;57.77;99998.34;5071941;28;20297;-90
2022/01/07 12:40:09;;;;;;;;;;;;;;;10.34;59.16;100010.22;5065796;28;19921;-89
2022/01/07 12:42:42;;;;;;;;;;;;;;;9.97;59.34;100007.59;5051671;28;19953;-89
2022/01/07 12:45:12;;;;;;;;;;;;;;;9.39;59.32;100014.34;5058028;28;20003;-89
2022/01/07 12:47:37;;;;;;;;;;;;;;;9.84;57.53;100019.94;5052041;28;19915;-89
2022/01/07 12:50:04;;;;;;;;;;;;;;;10.17;57.42;100013.19;5053914;28;19925;-90
2022/01/07 12:52:41;;;;;;;;;;;;;;;9.75;57.76;100026.66;5052188;28;20012;-89
2022/01/07 12:55:18;;;;;;;;;;;;;;;9.13;59.69;100009.94;5055090;28;19959;-88